Brazilton, Kansas
Current Conditions -  °F | °C
As of 4:55 AM on Friday 24 Oct 2014 (Local Time) from KPTS Reporting Station
Haze Haze  
Wind Chill: 56°   Ceiling: Unl
Heat Index: 56°   Visibility: 5mi
Dew Point: 56°   Wind: 5mph
Humidity: 100%   Direction: 190°S
Pressure: 30.1"   Gusts: NA
Location:  37.5057°N, 94.9338°W
Report Text: KPTS 240955Z AUTO 19004KT 5SM BR SCT045 13/13 A3010 RMK AO2 T01310132
Loading
Personal Weather Stations






























Interactive Weather Map
Tropical Storm Tracking
New forecast layout! Learn more

10-Day Weather Forecast

Advertisements
Track Severe Weather on mobile